createdAt,value
2023-02-11T00:00:19.401Z,101033.31
2023-02-11T00:02:54.772Z,101036.08
2023-02-11T00:05:27.548Z,101036.40
2023-02-11T00:07:58.338Z,101032.62
2023-02-11T00:10:33.564Z,101031.59
2023-02-11T00:13:07.237Z,101026.24
2023-02-11T00:15:41.859Z,101031.49
2023-02-11T00:18:23.291Z,101036.92
2023-02-11T00:20:51.888Z,101031.55
2023-02-11T00:23:21.251Z,101034.39
2023-02-11T00:25:51.383Z,101035.58
2023-02-11T00:28:53.990Z,101037.80
2023-02-11T00:31:25.309Z,101037.38
2023-02-11T00:33:55.758Z,101042.99
2023-02-11T00:36:26.158Z,101038.27
2023-02-11T00:38:59.482Z,101036.60
2023-02-11T00:41:35.807Z,101030.06
2023-02-11T00:44:05.480Z,101026.67
2023-02-11T00:46:34.446Z,101029.77
2023-02-11T00:49:03.154Z,101029.89
2023-02-11T00:51:31.827Z,101028.52
2023-02-11T00:54:00.327Z,101023.38
2023-02-11T00:56:29.278Z,101021.61
2023-02-11T00:58:57.412Z,101021.48
2023-02-11T01:01:25.638Z,101014.94
2023-02-11T01:03:54.700Z,101014.70
2023-02-11T01:06:24.442Z,101009.92
2023-02-11T01:08:52.405Z,101016.14
2023-02-11T01:11:21.085Z,101013.20
2023-02-11T01:13:49.535Z,101013.86
2023-02-11T01:16:18.175Z,101016.50
2023-02-11T01:18:47.294Z,101020.27
2023-02-11T01:21:16.291Z,101018.63
2023-02-11T01:23:44.382Z,101020.83
2023-02-11T01:26:13.537Z,101023.70
2023-02-11T01:28:41.669Z,101022.07
2023-02-11T01:31:09.795Z,101020.06
2023-02-11T01:33:37.881Z,101019.66
2023-02-11T01:36:07.745Z,101016.37
2023-02-11T01:38:36.056Z,101021.86
2023-02-11T01:41:06.607Z,101016.77
2023-02-11T01:43:36.892Z,101025.38
2023-02-11T01:46:25.234Z,101021.41
2023-02-11T01:48:56.172Z,101016.14
2023-02-11T01:51:27.336Z,101017.97
2023-02-11T01:54:15.412Z,101009.30
2023-02-11T01:57:05.645Z,101003.95
2023-02-11T01:59:38.834Z,100996.96
2023-02-11T02:02:09.510Z,101001.73
2023-02-11T02:05:03.049Z,100999.09
2023-02-11T02:15:53.493Z,100987.93
2023-02-11T02:18:24.681Z,100984.39
2023-02-11T02:20:53.006Z,100983.32
2023-02-11T02:23:55.109Z,100986.84
2023-02-11T02:26:53.086Z,100985.63
2023-02-11T02:29:24.476Z,100979.83
2023-02-11T02:32:13.872Z,100978.24
2023-02-11T02:35:02.980Z,100982.56
2023-02-11T02:37:38.298Z,100986.66
2023-02-11T02:40:16.164Z,100983.71
2023-02-11T02:42:45.518Z,100985.33
2023-02-11T02:45:13.692Z,100976.13
2023-02-11T02:47:43.610Z,100981.89
2023-02-11T02:50:11.918Z,100979.93
2023-02-11T02:53:02.782Z,100980.64
2023-02-11T02:55:50.340Z,100979.62
2023-02-11T02:58:31.487Z,100978.97
2023-02-11T03:01:19.067Z,100976.27
2023-02-11T03:04:03.674Z,100972.73
2023-02-11T03:06:53.871Z,100975.14
2023-02-11T03:09:26.534Z,100976.88
2023-02-11T03:11:54.625Z,100976.49
2023-02-11T03:14:22.808Z,100978.77
2023-02-11T03:16:51.018Z,100984.34
2023-02-11T03:19:21.851Z,100987.33
2023-02-11T03:21:50.511Z,100981.52
2023-02-11T03:24:30.674Z,100976.70
2023-02-11T03:27:18.344Z,100971.77
2023-02-11T03:30:08.291Z,100962.45
2023-02-11T03:32:50.724Z,100957.81
2023-02-11T03:35:24.702Z,100955.45
2023-02-11T03:37:54.970Z,100956.38
2023-02-11T03:40:45.772Z,100952.05
2023-02-11T03:43:19.690Z,100949.79
2023-02-11T03:45:47.832Z,100943.73
2023-02-11T03:48:20.969Z,100944.19
2023-02-11T03:50:49.344Z,100939.91
2023-02-11T03:53:17.415Z,100940.11
2023-02-11T03:55:45.789Z,100934.06
2023-02-11T03:58:13.996Z,100930.86
2023-02-11T04:00:42.966Z,100921.84
2023-02-11T04:03:12.423Z,100919.98
2023-02-11T04:05:40.557Z,100917.12
2023-02-11T04:08:08.512Z,100914.14
2023-02-11T04:10:36.556Z,100915.91
2023-02-11T04:13:06.191Z,100915.09
2023-02-11T04:15:34.559Z,100909.72
2023-02-11T04:18:03.669Z,100908.61
2023-02-11T04:20:32.716Z,100905.73
2023-02-11T04:23:00.706Z,100906.19
2023-02-11T04:25:29.327Z,100906.71
2023-02-11T04:27:57.414Z,100911.61
2023-02-11T04:30:25.675Z,100905.19
2023-02-11T04:32:54.631Z,100902.54
2023-02-11T04:35:23.219Z,100897.16
2023-02-11T04:37:51.396Z,100898.41
2023-02-11T04:40:19.375Z,100898.04
2023-02-11T04:42:47.505Z,100895.09
2023-02-11T04:45:15.487Z,100889.11
2023-02-11T04:47:43.913Z,100884.17
2023-02-11T04:50:11.888Z,100886.16
2023-02-11T04:52:40.014Z,100876.65
2023-02-11T04:55:08.273Z,100871.61
2023-02-11T04:57:37.679Z,100868.58
2023-02-11T05:00:06.190Z,100868.59
2023-02-11T05:02:35.798Z,100861.93
2023-02-11T05:05:04.805Z,100858.34
2023-02-11T05:07:33.304Z,100859.04
2023-02-11T05:10:01.341Z,100859.54
2023-02-11T05:12:29.560Z,100859.52
2023-02-11T05:14:57.593Z,100861.66
2023-02-11T05:17:25.696Z,100859.21
2023-02-11T05:19:53.876Z,100857.23
2023-02-11T05:22:22.184Z,100858.98
2023-02-11T05:24:50.792Z,100859.52
2023-02-11T05:27:19.002Z,100858.52
2023-02-11T05:29:47.192Z,100856.94
2023-02-11T05:32:15.191Z,100857.30
2023-02-11T05:34:43.238Z,100854.45
2023-02-11T05:37:16.067Z,100854.71
2023-02-11T05:39:44.034Z,100857.86
2023-02-11T05:42:13.961Z,100853.51
2023-02-11T05:44:41.968Z,100851.48
2023-02-11T05:47:10.874Z,100852.52
2023-02-11T05:49:39.561Z,100853.85
2023-02-11T05:52:08.266Z,100849.08
2023-02-11T05:54:37.553Z,100850.00
2023-02-11T05:57:05.501Z,100848.62
2023-02-11T05:59:33.405Z,100841.95
2023-02-11T06:02:02.643Z,100838.98
2023-02-11T06:04:30.905Z,100839.21
2023-02-11T06:06:59.954Z,100830.21
2023-02-11T06:09:28.815Z,100823.94
2023-02-11T06:11:56.779Z,100818.36
2023-02-11T06:14:24.754Z,100807.42
2023-02-11T06:16:53.346Z,100803.36
2023-02-11T06:19:22.988Z,100800.77
2023-02-11T06:21:50.994Z,100800.39
2023-02-11T06:24:38.358Z,100796.86
2023-02-11T06:27:07.296Z,100797.25
2023-02-11T06:29:35.404Z,100793.61
2023-02-11T06:32:03.885Z,100792.10
2023-02-11T06:34:32.280Z,100796.23
2023-02-11T06:37:03.801Z,100792.81
2023-02-11T06:39:32.735Z,100786.54
2023-02-11T06:42:05.356Z,100785.55
2023-02-11T06:44:34.342Z,100780.95
2023-02-11T06:47:06.129Z,100768.47
2023-02-11T06:49:35.070Z,100764.98
2023-02-11T06:52:03.586Z,100766.96
2023-02-11T06:54:31.895Z,100759.95
2023-02-11T06:57:00.034Z,100753.89
2023-02-11T06:59:28.141Z,100748.05
2023-02-11T07:01:56.120Z,100744.17
2023-02-11T07:04:24.297Z,100740.87
2023-02-11T07:06:52.270Z,100736.56
2023-02-11T07:09:20.997Z,100733.15
2023-02-11T07:11:49.430Z,100732.38
2023-02-11T07:14:17.815Z,100730.85
2023-02-11T07:16:45.798Z,100733.96
2023-02-11T07:19:16.852Z,100734.58
2023-02-11T07:21:44.796Z,100735.41
2023-02-11T07:24:16.442Z,100732.52
2023-02-11T07:26:50.441Z,100729.95
2023-02-11T07:29:18.415Z,100731.27
2023-02-11T07:31:46.595Z,100728.48
2023-02-11T07:34:16.604Z,100726.61
2023-02-11T07:36:45.267Z,100721.45
2023-02-11T07:39:13.640Z,100726.88
2023-02-11T07:41:42.881Z,100727.39
2023-02-11T07:44:11.433Z,100733.09
2023-02-11T07:46:43.596Z,100730.73
2023-02-11T07:49:12.207Z,100726.61
2023-02-11T07:51:40.567Z,100721.61
2023-02-11T07:54:08.574Z,100716.94
2023-02-11T07:56:36.604Z,100710.87
2023-02-11T07:59:04.764Z,100703.45
2023-02-11T08:01:33.732Z,100694.98
2023-02-11T08:04:02.061Z,100689.32
2023-02-11T08:06:31.783Z,100686.28
2023-02-11T08:09:06.169Z,100675.75
2023-02-11T08:11:34.706Z,100675.91
2023-02-11T08:14:02.942Z,100669.34
2023-02-11T08:16:33.226Z,100671.21
2023-02-11T08:19:04.438Z,100670.05
2023-02-11T08:21:35.280Z,100671.57
2023-02-11T08:24:04.581Z,100665.86
2023-02-11T08:26:34.736Z,100665.13
2023-02-11T08:29:05.813Z,100660.68
2023-02-11T08:31:35.147Z,100653.79
2023-02-11T08:34:03.486Z,100649.35
2023-02-11T08:36:34.281Z,100647.48
2023-02-11T08:39:18.218Z,100646.81
2023-02-11T08:41:52.808Z,100647.89
2023-02-11T08:44:20.880Z,100643.98
2023-02-11T08:46:50.256Z,100643.48
2023-02-11T08:49:18.907Z,100643.54
2023-02-11T08:51:47.513Z,100639.94
2023-02-11T08:54:15.938Z,100630.48
2023-02-11T08:56:44.104Z,100633.48
2023-02-11T08:59:13.643Z,100629.79
2023-02-11T09:01:44.174Z,100627.07
2023-02-11T09:04:12.898Z,100619.97
2023-02-11T09:06:44.453Z,100616.52
2023-02-11T09:09:14.216Z,100613.51
2023-02-11T09:11:42.926Z,100618.23
2023-02-11T09:14:16.733Z,100618.26
2023-02-11T09:16:45.013Z,100609.66
2023-02-11T09:19:13.576Z,100606.84
2023-02-11T09:21:42.061Z,100595.23
2023-02-11T09:24:11.244Z,100586.02
2023-02-11T09:26:42.030Z,100580.04
2023-02-11T09:29:12.757Z,100573.02
2023-02-11T09:31:41.106Z,100569.20
2023-02-11T09:34:11.105Z,100572.02
2023-02-11T09:36:40.458Z,100567.00
2023-02-11T09:39:12.529Z,100561.22
2023-02-11T09:42:02.350Z,100564.30
2023-02-11T09:44:33.266Z,100559.30
2023-02-11T09:47:22.078Z,100561.73
2023-02-11T09:49:54.771Z,100559.63
2023-02-11T09:52:36.113Z,100552.79
2023-02-11T09:55:06.875Z,100548.02
2023-02-11T09:57:37.828Z,100545.25
2023-02-11T10:00:27.542Z,100536.06
2023-02-11T10:03:35.500Z,100529.89
2023-02-11T10:06:25.352Z,100520.27
2023-02-11T10:09:26.247Z,100515.81
2023-02-11T10:12:35.619Z,100513.16
2023-02-11T10:15:42.668Z,100507.48
2023-02-11T10:18:56.352Z,100499.66
2023-02-11T10:22:15.881Z,100494.15
2023-02-11T10:24:59.137Z,100482.33
2023-02-11T10:27:35.309Z,100474.71
2023-02-11T10:30:58.304Z,100467.30
2023-02-11T10:33:54.561Z,100463.56
2023-02-11T10:36:31.907Z,100461.20
2023-02-11T10:39:03.176Z,100458.48
2023-02-11T10:41:35.213Z,100455.72
2023-02-11T10:44:08.235Z,100450.20
2023-02-11T10:46:40.361Z,100446.96
2023-02-11T10:49:12.153Z,100438.05
2023-02-11T10:51:43.221Z,100439.40
2023-02-11T10:54:22.212Z,100437.05
2023-02-11T10:57:00.223Z,100427.33
2023-02-11T10:59:40.423Z,100422.35
2023-02-11T11:10:44.764Z,100392.61
2023-02-11T11:13:33.359Z,100382.39
2023-02-11T11:16:13.679Z,100379.19
2023-02-11T11:18:45.327Z,100371.52
2023-02-11T11:21:13.401Z,100370.55
2023-02-11T11:23:42.189Z,100364.98
2023-02-11T11:26:14.208Z,100363.10
2023-02-11T11:28:49.384Z,100356.45
2023-02-11T11:31:20.919Z,100349.40
2023-02-11T11:33:49.315Z,100347.17
2023-02-11T11:36:21.177Z,100337.19
2023-02-11T11:38:58.401Z,100326.21
2023-02-11T11:41:31.016Z,100316.42
2023-02-11T11:44:22.143Z,100316.30
2023-02-11T11:47:15.780Z,100318.21
2023-02-11T11:50:03.240Z,100311.15
2023-02-11T11:52:32.017Z,100295.80
2023-02-11T11:55:05.290Z,100288.82
2023-02-11T11:57:34.337Z,100278.20
2023-02-11T12:00:02.421Z,100280.55
2023-02-11T12:02:57.591Z,100268.63
2023-02-11T12:05:27.885Z,100271.05
2023-02-11T12:08:24.765Z,100258.83
2023-02-11T12:11:38.040Z,100251.84
2023-02-11T12:14:09.619Z,100243.98
2023-02-11T12:17:23.773Z,100234.55
2023-02-11T12:20:12.994Z,100233.54
2023-02-11T12:23:15.154Z,100224.85
2023-02-11T12:25:44.690Z,100222.16
2023-02-11T12:28:33.034Z,100217.66
2023-02-11T12:31:20.299Z,100208.48
2023-02-11T12:33:57.940Z,100206.27
2023-02-11T12:36:54.494Z,100203.91
2023-02-11T12:39:33.825Z,100194.41
2023-02-11T12:42:52.355Z,100189.94
2023-02-11T12:45:29.752Z,100182.31
2023-02-11T12:48:27.238Z,100184.86
2023-02-11T12:51:04.886Z,100186.89
2023-02-11T12:54:06.776Z,100182.13
2023-02-11T12:56:59.375Z,100174.74
2023-02-11T13:00:02.006Z,100178.31
2023-02-11T13:03:06.085Z,100173.85
2023-02-11T13:05:38.878Z,100162.58
2023-02-11T13:08:29.524Z,100151.94
2023-02-11T13:11:13.854Z,100154.20
2023-02-11T13:13:47.703Z,100141.58
2023-02-11T13:16:22.682Z,100134.06
2023-02-11T13:19:39.529Z,100135.21
2023-02-11T13:22:18.373Z,100119.73
2023-02-11T13:24:55.896Z,100112.02
2023-02-11T13:27:38.608Z,100098.64
2023-02-11T13:30:26.050Z,100102.42
2023-02-11T13:32:54.521Z,100092.92
2023-02-11T13:35:35.439Z,100084.33
2023-02-11T13:38:18.202Z,100082.91
2023-02-11T13:40:46.764Z,100077.19
2023-02-11T13:43:26.418Z,100071.02
2023-02-11T13:46:05.999Z,100063.49
2023-02-11T13:48:37.631Z,100059.31
2023-02-11T13:51:06.950Z,100062.33
2023-02-11T13:54:02.609Z,100049.66
2023-02-11T13:56:39.408Z,100055.25
2023-02-11T13:59:26.733Z,100052.41
2023-02-11T14:02:36.493Z,100054.09
2023-02-11T14:05:23.266Z,100051.55
2023-02-11T14:08:28.719Z,100053.23
2023-02-11T14:11:12.470Z,100062.06
2023-02-11T14:13:47.472Z,100051.09
2023-02-11T14:16:31.603Z,100050.61
2023-02-11T14:19:06.625Z,100045.46
2023-02-11T14:21:46.751Z,100044.64
2023-02-11T14:24:14.796Z,100040.59
2023-02-11T14:27:05.153Z,100035.89
2023-02-11T14:29:51.254Z,100023.15
2023-02-11T14:32:43.649Z,100015.71
2023-02-11T14:35:33.616Z,100012.86
2023-02-11T14:38:20.822Z,100010.77
2023-02-11T14:40:51.272Z,100001.98
2023-02-11T14:43:22.879Z,99993.57
2023-02-11T14:45:53.611Z,99985.99
2023-02-11T14:48:27.426Z,99975.23
2023-02-11T14:51:00.902Z,99977.60
2023-02-11T14:53:30.788Z,99977.23
2023-02-11T14:56:00.821Z,99973.88
2023-02-11T14:58:31.599Z,99970.52
2023-02-11T15:01:19.194Z,99968.98
2023-02-11T15:03:48.668Z,99974.17
2023-02-11T15:06:18.795Z,99974.27
2023-02-11T15:09:00.909Z,99962.19
2023-02-11T15:11:39.798Z,99958.48
2023-02-11T15:14:23.089Z,99944.33
2023-02-11T15:16:53.478Z,99944.69
2023-02-11T15:19:26.909Z,99941.92
2023-02-11T15:21:55.346Z,99943.25
2023-02-11T15:24:34.981Z,99942.13
2023-02-11T15:27:15.737Z,99950.63
2023-02-11T15:29:49.651Z,99949.05
2023-02-11T15:32:22.809Z,99950.41
2023-02-11T15:34:52.090Z,99948.98
2023-02-11T15:37:29.763Z,99944.13
2023-02-11T15:40:09.651Z,99939.58
2023-02-11T15:42:51.869Z,99950.16
2023-02-11T15:45:24.899Z,99934.91
2023-02-11T15:47:54.698Z,99936.16
2023-02-11T15:50:33.105Z,99930.72
2023-02-11T15:53:02.944Z,99934.50
2023-02-11T15:55:37.486Z,99940.58
2023-02-11T15:58:05.573Z,99943.66
2023-02-11T16:00:37.348Z,99938.91
2023-02-11T16:03:05.495Z,99937.94
2023-02-11T16:05:35.876Z,99931.15
2023-02-11T16:08:20.595Z,99928.27
2023-02-11T16:11:03.303Z,99927.64
2023-02-11T16:13:34.462Z,99921.92
2023-02-11T16:16:05.020Z,99920.34
2023-02-11T16:18:39.844Z,99910.33
2023-02-11T16:21:16.154Z,99907.48
2023-02-11T16:23:50.806Z,99904.21
2023-02-11T16:26:23.247Z,99899.64
2023-02-11T16:28:51.569Z,99889.17
2023-02-11T16:31:20.747Z,99891.10
2023-02-11T16:33:50.542Z,99884.39
2023-02-11T16:36:19.799Z,99878.77
2023-02-11T16:38:49.557Z,99875.63
2023-02-11T16:41:18.251Z,99880.46
2023-02-11T16:43:46.588Z,99859.98
2023-02-11T16:46:16.123Z,99859.35
2023-02-11T16:48:44.392Z,99860.15
2023-02-11T16:51:12.634Z,99855.41
2023-02-11T16:53:41.442Z,99855.80
2023-02-11T16:56:15.816Z,99851.77
2023-02-11T16:58:44.921Z,99850.44
2023-02-11T17:01:14.202Z,99863.52
2023-02-11T17:03:43.924Z,99859.58
2023-02-11T17:06:13.733Z,99876.05
2023-02-11T17:08:42.371Z,99866.06
2023-02-11T17:11:10.524Z,99859.23
2023-02-11T17:13:41.523Z,99850.65
2023-02-11T17:16:29.895Z,99845.69
2023-02-11T17:18:58.656Z,99857.45
2023-02-11T17:21:29.730Z,99833.80
2023-02-11T17:23:59.340Z,99836.20
2023-02-11T17:26:27.911Z,99827.10
2023-02-11T17:28:56.719Z,99831.69
2023-02-11T17:31:25.028Z,99822.00
2023-02-11T17:33:53.214Z,99824.55
2023-02-11T17:36:21.483Z,99812.45
2023-02-11T17:38:51.233Z,99810.11
2023-02-11T17:41:19.535Z,99820.93
2023-02-11T17:43:47.544Z,99810.92
2023-02-11T17:46:15.741Z,99808.77
2023-02-11T17:48:43.858Z,99818.86
2023-02-11T17:51:31.640Z,99809.59
2023-02-11T17:54:02.620Z,99811.77
2023-02-11T17:56:35.319Z,99798.63
2023-02-11T17:59:04.005Z,99811.40
2023-02-11T18:01:33.219Z,99806.39
2023-02-11T18:04:01.552Z,99802.43
2023-02-11T18:06:29.923Z,99797.09
2023-02-11T18:08:59.892Z,99798.77
2023-02-11T18:11:30.597Z,99791.45
2023-02-11T18:13:59.376Z,99792.36
2023-02-11T18:16:28.979Z,99795.86
2023-02-11T18:18:57.770Z,99782.17
2023-02-11T18:21:25.903Z,99795.94
2023-02-11T18:23:54.061Z,99778.96
2023-02-11T18:26:22.359Z,99782.39
2023-02-11T18:28:52.569Z,99774.48
2023-02-11T18:31:21.969Z,99775.91
2023-02-11T18:33:50.954Z,99766.39
2023-02-11T18:36:20.564Z,99769.77
2023-02-11T18:38:50.075Z,99773.21
2023-02-11T18:41:18.082Z,99773.91
2023-02-11T18:43:46.837Z,99768.92
2023-02-11T18:46:15.149Z,99771.36
2023-02-11T18:48:44.864Z,99772.60
2023-02-11T18:51:15.139Z,99776.48
2023-02-11T18:53:43.445Z,99778.42
2023-02-11T18:56:17.036Z,99768.34
2023-02-11T18:58:45.058Z,99775.09
2023-02-11T19:01:17.982Z,99759.13
2023-02-11T19:03:46.475Z,99760.27
2023-02-11T19:06:19.865Z,99758.11
2023-02-11T19:08:49.794Z,99754.84
2023-02-11T19:11:20.052Z,99749.25
2023-02-11T19:13:48.939Z,99749.04
2023-02-11T19:16:19.840Z,99739.82
2023-02-11T19:18:48.081Z,99746.45
2023-02-11T19:21:16.670Z,99731.05
2023-02-11T19:23:45.505Z,99726.06
2023-02-11T19:26:13.679Z,99737.68
2023-02-11T19:28:42.137Z,99732.16
2023-02-11T19:31:10.443Z,99728.45
2023-02-11T19:33:39.106Z,99724.10
2023-02-11T19:36:08.206Z,99722.42
2023-02-11T19:38:37.776Z,99722.77
2023-02-11T19:41:06.079Z,99713.81
2023-02-11T19:43:34.976Z,99721.00
2023-02-11T19:46:04.328Z,99707.09
2023-02-11T19:48:32.768Z,99707.98
2023-02-11T19:51:13.122Z,99712.63
2023-02-11T19:53:42.337Z,99710.58
2023-02-11T19:56:11.169Z,99701.33
2023-02-11T19:58:40.618Z,99707.16
2023-02-11T20:01:13.530Z,99705.05
2023-02-11T20:03:42.791Z,99695.95
2023-02-11T20:06:14.070Z,99693.49
2023-02-11T20:08:44.610Z,99686.70
2023-02-11T20:11:17.595Z,99685.68
2023-02-11T20:13:51.085Z,99685.05
2023-02-11T20:16:21.925Z,99683.41
2023-02-11T20:18:50.613Z,99688.96
2023-02-11T20:21:23.717Z,99672.11
2023-02-11T20:23:53.432Z,99678.59
2023-02-11T20:26:22.506Z,99673.06
2023-02-11T20:28:51.555Z,99670.61
2023-02-11T20:31:19.988Z,99664.72
2023-02-11T20:33:49.010Z,99679.73
2023-02-11T20:36:21.293Z,99674.39
2023-02-11T20:38:49.634Z,99676.55
2023-02-11T20:41:31.036Z,99672.70
2023-02-11T20:44:00.696Z,99666.98
2023-02-11T20:46:31.030Z,99661.06
2023-02-11T20:48:59.302Z,99669.94
2023-02-11T20:51:30.517Z,99667.03
2023-02-11T20:53:58.848Z,99666.67
2023-02-11T20:56:34.517Z,99661.39
2023-02-11T20:59:05.527Z,99659.26
2023-02-11T21:01:40.674Z,99655.29
2023-02-11T21:04:19.556Z,99658.45
2023-02-11T21:06:55.804Z,99656.14
2023-02-11T21:09:28.727Z,99658.00
2023-02-11T21:12:05.631Z,99657.50
2023-02-11T21:14:37.667Z,99657.98
2023-02-11T21:17:08.895Z,99651.09
2023-02-11T21:19:41.599Z,99651.37
2023-02-11T21:22:12.560Z,99655.83
2023-02-11T21:24:44.687Z,99649.35
2023-02-11T21:27:21.705Z,99647.61
2023-02-11T21:29:54.795Z,99649.37
2023-02-11T21:32:26.671Z,99644.59
2023-02-11T21:34:59.531Z,99636.91
2023-02-11T21:37:33.570Z,99638.91
2023-02-11T21:40:05.638Z,99634.30
2023-02-11T21:42:39.684Z,99627.86
2023-02-11T21:45:18.704Z,99620.32
2023-02-11T21:47:51.459Z,99627.38
2023-02-11T21:50:22.843Z,99631.45
2023-02-11T21:52:54.629Z,99630.95
2023-02-11T22:03:32.847Z,99627.34
2023-02-11T22:06:06.307Z,99626.63
2023-02-11T22:08:34.376Z,99627.89
2023-02-11T22:11:06.554Z,99628.65
2023-02-11T22:13:35.229Z,99626.12
2023-02-11T22:16:11.357Z,99624.78
2023-02-11T22:18:40.181Z,99626.73
2023-02-11T22:21:13.828Z,99631.02
2023-02-11T22:23:41.840Z,99610.45
2023-02-11T22:26:16.386Z,99618.54
2023-02-11T22:28:44.607Z,99619.31
2023-02-11T22:31:14.756Z,99617.41
2023-02-11T22:33:43.218Z,99610.58
2023-02-11T22:36:17.050Z,99621.16
2023-02-11T22:38:45.284Z,99613.71
2023-02-11T22:41:13.571Z,99619.83
2023-02-11T22:43:43.337Z,99623.61
2023-02-11T22:46:13.270Z,99623.23
2023-02-11T22:48:41.382Z,99626.55
2023-02-11T22:51:15.420Z,99624.80
2023-02-11T22:53:46.296Z,99620.05
2023-02-11T22:56:15.805Z,99622.70
2023-02-11T22:58:44.032Z,99613.95
2023-02-11T23:01:12.912Z,99613.98
2023-02-11T23:03:41.976Z,99613.17
2023-02-11T23:06:10.521Z,99616.99
2023-02-11T23:08:40.189Z,99615.38
2023-02-11T23:11:10.269Z,99616.32
2023-02-11T23:13:40.797Z,99613.10
2023-02-11T23:16:11.352Z,99616.37
2023-02-11T23:18:40.372Z,99619.10
2023-02-11T23:21:12.794Z,99624.69
2023-02-11T23:23:41.648Z,99623.61
2023-02-11T23:26:13.296Z,99623.80
2023-02-11T23:28:41.561Z,99625.15
2023-02-11T23:31:25.084Z,99629.42
2023-02-11T23:33:53.524Z,99640.98
2023-02-11T23:36:21.770Z,99636.77
2023-02-11T23:38:52.726Z,99636.48
2023-02-11T23:41:20.979Z,99642.55
2023-02-11T23:43:53.606Z,99645.19
2023-02-11T23:46:22.345Z,99648.46
2023-02-11T23:48:52.433Z,99647.05
2023-02-11T23:51:21.563Z,99645.83
2023-02-11T23:53:52.710Z,99652.63
2023-02-11T23:56:26.687Z,99666.65
2023-02-11T23:58:56.390Z,99651.98
